createdAt,value
2022-12-13T00:00:46.060Z,2.00
2022-12-13T00:03:12.181Z,2.00
2022-12-13T00:05:43.867Z,2.00
2022-12-13T00:08:10.077Z,1.90
2022-12-13T00:10:36.461Z,1.93
2022-12-13T00:13:03.864Z,2.00
2022-12-13T00:15:31.570Z,2.00
2022-12-13T00:17:57.728Z,1.90
2022-12-13T00:20:23.998Z,2.00
2022-12-13T00:22:52.464Z,1.90
2022-12-13T00:25:20.746Z,1.93
2022-12-13T00:27:46.952Z,1.97
2022-12-13T00:30:13.250Z,1.90
2022-12-13T00:32:39.438Z,1.90
2022-12-13T00:35:06.502Z,1.90
2022-12-13T00:37:32.628Z,1.90
2022-12-13T00:39:58.935Z,1.80
2022-12-13T00:42:25.433Z,1.93
2022-12-13T00:44:51.699Z,1.87
2022-12-13T00:47:20.141Z,2.03
2022-12-13T00:49:46.408Z,1.90
2022-12-13T00:52:13.022Z,1.70
2022-12-13T00:54:39.464Z,1.90
2022-12-13T00:57:05.701Z,1.90
2022-12-13T00:59:31.824Z,1.90
2022-12-13T01:01:58.076Z,2.00
2022-12-13T01:04:24.195Z,1.90
2022-12-13T01:06:50.919Z,1.90
2022-12-13T01:09:22.961Z,2.00
2022-12-13T01:11:49.523Z,1.80
2022-12-13T01:14:17.271Z,1.80
2022-12-13T01:16:43.549Z,1.90
2022-12-13T01:19:09.702Z,1.90
2022-12-13T01:21:36.122Z,1.90
2022-12-13T01:24:03.495Z,1.93
2022-12-13T01:26:29.949Z,1.90
2022-12-13T01:28:56.129Z,1.90
2022-12-13T01:31:22.611Z,1.90
2022-12-13T01:33:48.791Z,2.00
2022-12-13T01:36:16.747Z,1.90
2022-12-13T01:38:43.972Z,1.90
2022-12-13T01:41:18.270Z,1.90
2022-12-13T01:43:54.937Z,1.90
2022-12-13T01:46:21.286Z,1.90
2022-12-13T01:49:06.113Z,1.90
2022-12-13T01:51:55.826Z,1.90
2022-12-13T01:54:24.310Z,1.90
2022-12-13T01:57:01.206Z,1.90
2022-12-13T01:59:27.337Z,1.93
2022-12-13T02:01:54.600Z,1.90
2022-12-13T02:04:53.469Z,2.00
2022-12-13T02:07:22.627Z,1.90
2022-12-13T02:09:57.193Z,1.90
2022-12-13T02:12:29.822Z,1.97
2022-12-13T02:15:00.825Z,2.00
2022-12-13T02:17:52.618Z,2.03
2022-12-13T02:20:57.226Z,2.03
2022-12-13T02:23:50.599Z,1.90
2022-12-13T02:31:31.782Z,1.90
2022-12-13T02:34:09.507Z,2.00
2022-12-13T02:36:53.468Z,2.00
2022-12-13T02:41:00.766Z,2.00
2022-12-13T02:44:01.385Z,2.00
2022-12-13T02:46:29.282Z,1.90
2022-12-13T02:48:55.676Z,2.00
2022-12-13T02:51:22.151Z,1.83
2022-12-13T02:53:48.322Z,2.00
2022-12-13T02:56:14.571Z,2.00
2022-12-13T02:58:43.438Z,1.90
2022-12-13T03:02:59.028Z,2.00
2022-12-13T03:06:59.657Z,1.90
2022-12-13T03:10:42.699Z,2.00
2022-12-13T03:13:31.670Z,2.20
2022-12-13T03:15:58.985Z,2.00
2022-12-13T03:18:28.394Z,2.00
2022-12-13T03:21:04.229Z,2.00
2022-12-13T03:23:30.432Z,2.10
2022-12-13T03:26:09.803Z,2.10
2022-12-13T03:28:36.377Z,2.10
2022-12-13T03:31:03.010Z,1.90
2022-12-13T03:33:29.348Z,2.00
2022-12-13T03:35:55.660Z,2.00
2022-12-13T03:38:23.443Z,2.00
2022-12-13T03:40:55.389Z,2.00
2022-12-13T03:43:22.567Z,1.80
2022-12-13T03:45:50.354Z,2.00
2022-12-13T03:48:23.070Z,1.90
2022-12-13T03:50:50.873Z,1.90
2022-12-13T03:53:23.134Z,2.00
2022-12-13T03:56:01.010Z,1.90
2022-12-13T03:58:35.349Z,1.90
2022-12-13T04:01:08.071Z,2.20
2022-12-13T04:03:35.380Z,2.00
2022-12-13T04:06:01.884Z,2.00
2022-12-13T04:08:28.526Z,2.00
2022-12-13T04:10:56.202Z,1.90
2022-12-13T04:13:34.386Z,1.90
2022-12-13T04:16:01.636Z,2.00
2022-12-13T04:18:28.259Z,2.00
2022-12-13T04:20:54.450Z,2.00
2022-12-13T04:23:21.438Z,2.00
2022-12-13T04:25:48.133Z,2.00
2022-12-13T04:28:22.240Z,2.00
2022-12-13T04:30:53.517Z,1.90
2022-12-13T04:33:21.263Z,1.83
2022-12-13T04:35:47.969Z,1.90
2022-12-13T04:38:14.178Z,1.90
2022-12-13T04:40:40.749Z,2.00
2022-12-13T04:43:07.282Z,2.10
2022-12-13T04:45:33.817Z,1.90
2022-12-13T04:48:00.237Z,1.90
2022-12-13T04:50:26.875Z,1.90
2022-12-13T04:52:54.441Z,1.93
2022-12-13T04:55:21.453Z,2.00
2022-12-13T04:57:47.709Z,1.80
2022-12-13T05:00:15.267Z,1.90
2022-12-13T05:02:42.963Z,1.80
2022-12-13T05:05:09.596Z,1.90
2022-12-13T05:07:36.116Z,1.80
2022-12-13T05:10:10.187Z,1.80
2022-12-13T05:12:36.843Z,1.80
2022-12-13T05:15:03.423Z,1.90
2022-12-13T05:17:29.949Z,2.00
2022-12-13T05:19:56.103Z,1.73
2022-12-13T05:22:23.691Z,1.90
2022-12-13T05:24:50.542Z,1.80
2022-12-13T05:27:24.665Z,1.80
2022-12-13T05:29:57.676Z,1.90
2022-12-13T05:32:44.270Z,1.80
2022-12-13T05:35:22.181Z,1.83
2022-12-13T05:37:54.076Z,1.87
2022-12-13T05:40:24.939Z,1.80
2022-12-13T05:42:51.106Z,2.50
2022-12-13T05:45:18.407Z,2.00
2022-12-13T05:47:44.986Z,2.00
2022-12-13T05:50:11.964Z,2.00
2022-12-13T05:52:39.168Z,2.00
2022-12-13T05:55:06.072Z,1.93
2022-12-13T05:57:32.748Z,2.10
2022-12-13T06:00:00.357Z,1.80
2022-12-13T06:02:27.821Z,1.87
2022-12-13T06:04:54.487Z,1.80
2022-12-13T06:07:20.634Z,1.90
2022-12-13T06:09:47.782Z,1.90
2022-12-13T06:12:31.853Z,2.00
2022-12-13T06:15:00.838Z,2.00
2022-12-13T06:17:48.845Z,1.87
2022-12-13T06:20:22.865Z,1.90
2022-12-13T06:22:51.469Z,2.00
2022-12-13T06:25:30.867Z,1.90
2022-12-13T06:28:01.657Z,2.00
2022-12-13T06:30:30.924Z,2.10
2022-12-13T06:32:58.149Z,2.00
2022-12-13T06:35:28.704Z,1.90
2022-12-13T06:38:00.872Z,1.90
2022-12-13T06:40:29.734Z,1.90
2022-12-13T06:42:56.372Z,1.90
2022-12-13T06:45:22.825Z,2.00
2022-12-13T06:47:49.322Z,1.90
2022-12-13T06:50:15.896Z,1.93
2022-12-13T06:52:42.506Z,2.00
2022-12-13T06:55:09.233Z,2.00
2022-12-13T06:57:35.473Z,1.90
2022-12-13T07:00:04.275Z,1.97
2022-12-13T07:02:30.892Z,1.87
2022-12-13T07:04:57.946Z,1.90
2022-12-13T07:07:25.306Z,1.90
2022-12-13T07:09:51.969Z,1.90
2022-12-13T07:12:21.056Z,2.00
2022-12-13T07:14:47.386Z,2.00
2022-12-13T07:17:13.692Z,1.90
2022-12-13T07:20:01.012Z,2.00
2022-12-13T07:22:27.607Z,2.00
2022-12-13T07:24:53.876Z,1.90
2022-12-13T07:27:20.436Z,2.00
2022-12-13T07:29:46.567Z,2.00
2022-12-13T07:32:12.758Z,1.90
2022-12-13T07:34:39.472Z,2.00
2022-12-13T07:37:05.735Z,2.00
2022-12-13T07:39:32.043Z,2.00
2022-12-13T07:41:58.242Z,1.90
2022-12-13T07:44:25.124Z,1.90
2022-12-13T07:46:52.099Z,1.90
2022-12-13T07:49:18.505Z,2.10
2022-12-13T07:51:44.658Z,1.83
2022-12-13T07:54:10.910Z,1.90
2022-12-13T07:56:37.113Z,1.93
2022-12-13T07:59:03.336Z,1.90
2022-12-13T08:01:33.695Z,1.90
2022-12-13T08:04:01.113Z,2.10
2022-12-13T08:06:27.625Z,2.00
2022-12-13T08:08:57.194Z,2.00
2022-12-13T08:11:23.871Z,1.93
2022-12-13T08:13:50.220Z,1.90
2022-12-13T08:16:26.103Z,1.90
2022-12-13T08:18:53.099Z,1.90
2022-12-13T08:21:53.981Z,1.90
2022-12-13T08:24:21.180Z,1.80
2022-12-13T08:26:47.466Z,2.00
2022-12-13T08:29:23.552Z,1.90
2022-12-13T08:32:04.940Z,2.00
2022-12-13T08:34:31.165Z,1.80
2022-12-13T08:37:02.949Z,1.90
2022-12-13T08:39:37.437Z,1.90
2022-12-13T08:42:16.351Z,2.00
2022-12-13T08:44:48.466Z,1.90
2022-12-13T08:47:23.479Z,2.00
2022-12-13T08:49:52.483Z,1.90
2022-12-13T08:52:20.171Z,1.90
2022-12-13T08:54:46.744Z,1.87
2022-12-13T08:57:13.372Z,2.00
2022-12-13T08:59:40.068Z,1.90
2022-12-13T09:02:06.430Z,2.00
2022-12-13T09:04:33.060Z,1.90
2022-12-13T09:07:01.388Z,1.93
2022-12-13T09:09:29.740Z,1.90
2022-12-13T09:11:59.296Z,2.00
2022-12-13T09:14:34.165Z,1.90
2022-12-13T09:17:02.718Z,1.93
2022-12-13T09:19:30.102Z,2.00
2022-12-13T09:22:03.986Z,2.00
2022-12-13T09:24:35.927Z,3.07
2022-12-13T09:27:09.828Z,2.00
2022-12-13T09:29:37.634Z,2.00
2022-12-13T09:32:04.841Z,1.97
2022-12-13T09:34:32.452Z,1.90
2022-12-13T09:37:01.462Z,2.17
2022-12-13T09:39:29.175Z,2.10
2022-12-13T09:42:01.111Z,2.10
2022-12-13T09:44:42.401Z,2.00
2022-12-13T09:47:39.529Z,2.00
2022-12-13T09:50:38.771Z,2.00
2022-12-13T09:53:11.947Z,2.00
2022-12-13T09:55:41.413Z,2.00
2022-12-13T09:58:28.326Z,1.97
2022-12-13T10:00:55.098Z,2.10
2022-12-13T10:03:22.661Z,2.10
2022-12-13T10:06:00.983Z,2.10
2022-12-13T10:08:39.789Z,2.10
2022-12-13T10:11:05.980Z,1.93
2022-12-13T10:13:46.370Z,2.20
2022-12-13T10:16:57.864Z,2.10
2022-12-13T10:19:38.938Z,2.00
2022-12-13T10:22:09.887Z,2.00
2022-12-13T10:25:00.300Z,2.00
2022-12-13T10:27:43.386Z,2.10
2022-12-13T10:30:17.607Z,2.00
2022-12-13T10:32:56.132Z,2.10
2022-12-13T10:35:30.363Z,2.00
2022-12-13T10:37:59.428Z,2.10
2022-12-13T10:40:36.843Z,2.17
2022-12-13T10:43:20.130Z,2.20
2022-12-13T10:46:01.911Z,2.00
2022-12-13T10:49:21.732Z,2.10
2022-12-13T10:51:49.723Z,2.20
2022-12-13T10:54:21.105Z,2.20
2022-12-13T10:56:50.738Z,2.00
2022-12-13T10:59:36.688Z,2.03
2022-12-13T11:02:35.881Z,2.00
2022-12-13T11:05:24.827Z,2.10
2022-12-13T11:07:51.378Z,2.10
2022-12-13T11:10:27.703Z,2.10
2022-12-13T11:12:59.871Z,2.10
2022-12-13T11:15:26.369Z,2.00
2022-12-13T11:18:02.748Z,2.20
2022-12-13T11:20:35.123Z,2.10
2022-12-13T11:23:15.938Z,1.90
2022-12-13T11:25:43.319Z,2.00
2022-12-13T11:30:13.748Z,1.90
2022-12-13T11:34:55.824Z,2.10
2022-12-13T11:38:00.776Z,2.20
2022-12-13T11:40:31.471Z,2.20
2022-12-13T11:44:04.827Z,2.20
2022-12-13T11:46:45.207Z,2.20
2022-12-13T11:49:19.338Z,2.10
2022-12-13T11:51:51.856Z,2.10
2022-12-13T11:54:34.577Z,2.10
2022-12-13T11:57:05.575Z,2.10
2022-12-13T11:59:41.833Z,2.20
2022-12-13T12:02:29.820Z,2.10
2022-12-13T12:05:00.565Z,2.10
2022-12-13T12:08:12.741Z,2.10
2022-12-13T12:11:53.528Z,2.10
2022-12-13T12:14:43.261Z,2.10
2022-12-13T12:17:13.937Z,2.03
2022-12-13T12:19:41.796Z,2.10
2022-12-13T12:22:50.598Z,2.00
2022-12-13T12:26:04.848Z,2.07
2022-12-13T12:30:08.847Z,2.10
2022-12-13T12:37:51.433Z,2.10
2022-12-13T12:41:15.158Z,2.20
2022-12-13T12:43:42.945Z,2.10
2022-12-13T12:47:01.917Z,2.10
2022-12-13T12:51:46.690Z,2.10
2022-12-13T12:54:35.018Z,2.20
2022-12-13T13:04:01.527Z,2.10
2022-12-13T13:06:31.769Z,2.20
2022-12-13T13:09:07.081Z,2.27
2022-12-13T13:11:44.217Z,2.10
2022-12-13T13:14:38.091Z,2.20
2022-12-13T13:18:57.192Z,2.20
2022-12-13T13:21:36.214Z,2.10
2022-12-13T13:24:17.192Z,2.10
2022-12-13T13:26:48.493Z,2.20
2022-12-13T13:29:48.091Z,2.10
2022-12-13T13:32:29.699Z,2.10
2022-12-13T13:35:47.573Z,2.17
2022-12-13T13:38:47.399Z,2.27
2022-12-13T13:41:39.318Z,2.30
2022-12-13T13:46:16.438Z,2.10
2022-12-13T13:49:03.564Z,2.10
2022-12-13T13:58:27.466Z,2.10
2022-12-13T14:01:35.229Z,2.20
2022-12-13T14:09:38.608Z,2.10
2022-12-13T14:16:35.450Z,2.10
2022-12-13T14:22:08.760Z,2.10
2022-12-13T14:26:23.422Z,2.20
2022-12-13T14:28:52.300Z,2.00
2022-12-13T14:32:08.654Z,2.00
2022-12-13T14:34:53.592Z,2.10
2022-12-13T14:37:30.113Z,2.10
2022-12-13T14:39:58.512Z,2.10
2022-12-13T14:42:30.872Z,2.10
2022-12-13T14:45:18.828Z,2.00
2022-12-13T14:47:45.749Z,2.10
2022-12-13T14:50:14.583Z,2.10
2022-12-13T14:52:42.337Z,2.20
2022-12-13T14:55:26.020Z,2.30
2022-12-13T14:57:54.969Z,2.10
2022-12-13T15:00:45.522Z,2.20
2022-12-13T15:03:25.702Z,2.20
2022-12-13T15:05:54.451Z,2.20
2022-12-13T15:08:22.291Z,2.23
2022-12-13T15:10:59.557Z,2.30
2022-12-13T15:13:52.113Z,2.30
2022-12-13T15:16:26.426Z,2.60
2022-12-13T15:19:28.958Z,2.40
2022-12-13T15:22:13.223Z,2.20
2022-12-13T15:24:41.673Z,2.10
2022-12-13T15:27:10.126Z,2.20
2022-12-13T15:29:39.368Z,2.00
2022-12-13T15:32:16.059Z,2.00
2022-12-13T15:34:45.623Z,2.00
2022-12-13T15:37:34.527Z,2.10
2022-12-13T15:40:08.308Z,2.30
2022-12-13T15:42:39.822Z,2.10
2022-12-13T15:45:17.295Z,2.10
2022-12-13T15:47:54.151Z,2.30
2022-12-13T15:50:36.742Z,2.20
2022-12-13T15:55:47.418Z,2.10
2022-12-13T15:58:31.813Z,2.27
2022-12-13T16:01:04.540Z,1.90
2022-12-13T16:03:47.132Z,2.10
2022-12-13T16:06:23.414Z,2.20
2022-12-13T16:08:51.416Z,2.30
2022-12-13T16:11:29.524Z,2.40
2022-12-13T16:20:59.716Z,2.20
2022-12-13T16:23:27.557Z,2.20
2022-12-13T16:25:56.858Z,2.10
2022-12-13T16:28:26.037Z,2.27
2022-12-13T16:31:15.313Z,2.10
2022-12-13T16:33:42.584Z,2.30
2022-12-13T16:36:10.990Z,2.23
2022-12-13T16:38:39.560Z,2.20
2022-12-13T16:41:09.802Z,2.20
2022-12-13T16:43:56.957Z,2.10
2022-12-13T16:47:17.505Z,2.10
2022-12-13T16:49:50.510Z,2.20
2022-12-13T16:52:23.023Z,2.30
2022-12-13T16:54:50.866Z,2.07
2022-12-13T16:57:18.188Z,1.90
2022-12-13T16:59:44.813Z,2.20
2022-12-13T17:02:15.856Z,2.00
2022-12-13T17:04:42.665Z,2.10
2022-12-13T17:07:10.176Z,2.20
2022-12-13T17:09:36.475Z,2.20
2022-12-13T17:12:03.528Z,2.23
2022-12-13T17:14:30.097Z,2.33
2022-12-13T17:16:57.880Z,2.10
2022-12-13T17:19:24.126Z,2.50
2022-12-13T17:21:50.316Z,2.20
2022-12-13T17:24:17.516Z,2.40
2022-12-13T17:26:54.453Z,2.40
2022-12-13T17:29:24.755Z,2.20
2022-12-13T17:31:52.202Z,2.20
2022-12-13T17:34:18.912Z,2.27
2022-12-13T17:36:45.282Z,2.10
2022-12-13T17:39:12.602Z,2.00
2022-12-13T17:41:39.421Z,2.10
2022-12-13T17:44:06.502Z,2.10
2022-12-13T17:46:33.885Z,2.20
2022-12-13T17:49:00.709Z,2.00
2022-12-13T17:51:28.372Z,2.20
2022-12-13T17:53:56.333Z,2.10
2022-12-13T17:56:22.849Z,2.27
2022-12-13T17:58:49.598Z,2.00
2022-12-13T18:01:23.151Z,2.23
2022-12-13T18:03:51.807Z,2.10
2022-12-13T18:06:18.421Z,2.20
2022-12-13T18:08:47.618Z,2.10
2022-12-13T18:11:33.707Z,2.20
2022-12-13T18:14:01.805Z,2.30
2022-12-13T18:16:36.268Z,2.20
2022-12-13T18:19:09.572Z,2.20
2022-12-13T18:21:37.665Z,2.30
2022-12-13T18:24:05.736Z,2.20
2022-12-13T18:26:32.647Z,2.30
2022-12-13T18:28:59.504Z,2.33
2022-12-13T18:31:27.249Z,2.40
2022-12-13T18:33:54.421Z,2.30
2022-12-13T18:36:22.620Z,2.30
2022-12-13T18:38:50.009Z,2.30
2022-12-13T18:41:19.742Z,2.53
2022-12-13T18:43:48.105Z,3.10
2022-12-13T18:46:15.557Z,2.30
2022-12-13T18:48:42.141Z,2.20
2022-12-13T18:51:10.310Z,2.30
2022-12-13T18:53:38.123Z,2.27
2022-12-13T18:56:17.516Z,2.20
2022-12-13T18:58:45.273Z,2.20
2022-12-13T19:01:12.228Z,2.30
2022-12-13T19:03:39.223Z,2.67
2022-12-13T19:06:06.354Z,2.93
2022-12-13T19:08:33.053Z,2.20
2022-12-13T19:11:01.119Z,2.20
2022-12-13T19:13:28.796Z,2.30
2022-12-13T19:15:58.570Z,2.33
2022-12-13T19:18:25.423Z,2.30
2022-12-13T19:20:53.282Z,2.40
2022-12-13T19:23:20.254Z,2.40
2022-12-13T19:25:48.605Z,2.30
2022-12-13T19:28:18.320Z,2.33
2022-12-13T19:30:46.109Z,2.40
2022-12-13T19:33:13.128Z,2.20
2022-12-13T19:35:46.829Z,2.30
2022-12-13T19:38:16.118Z,2.27
2022-12-13T19:40:43.606Z,2.30
2022-12-13T19:43:10.894Z,2.40
2022-12-13T19:45:37.691Z,2.20
2022-12-13T19:48:06.221Z,2.40
2022-12-13T19:50:32.615Z,2.20
2022-12-13T19:53:00.687Z,2.23
2022-12-13T19:55:29.884Z,2.40
2022-12-13T19:57:57.315Z,2.20
2022-12-13T20:00:24.490Z,2.40
2022-12-13T20:02:51.954Z,2.30
2022-12-13T20:05:19.455Z,2.30
2022-12-13T20:07:48.748Z,2.30
2022-12-13T20:10:19.321Z,2.30
2022-12-13T20:12:45.740Z,2.30
2022-12-13T20:15:13.414Z,2.40
2022-12-13T20:17:40.766Z,2.20
2022-12-13T20:20:08.195Z,2.30
2022-12-13T20:22:36.386Z,2.30
2022-12-13T20:25:03.380Z,2.30
2022-12-13T20:27:33.243Z,2.20
2022-12-13T20:30:00.447Z,2.30
2022-12-13T20:32:27.977Z,2.07
2022-12-13T20:34:55.105Z,2.37
2022-12-13T20:37:22.469Z,2.23
2022-12-13T20:39:50.401Z,2.40
2022-12-13T20:42:18.186Z,2.23
2022-12-13T20:44:47.900Z,2.40
2022-12-13T20:47:16.693Z,2.40
2022-12-13T20:49:48.339Z,2.40
2022-12-13T20:52:17.083Z,2.23
2022-12-13T20:54:45.124Z,2.30
2022-12-13T20:57:14.019Z,2.30
2022-12-13T20:59:41.932Z,2.30
2022-12-13T21:02:11.841Z,2.50
2022-12-13T21:04:41.327Z,2.20
2022-12-13T21:07:09.098Z,2.40
2022-12-13T21:09:35.372Z,2.30
2022-12-13T21:12:03.525Z,2.43
2022-12-13T21:14:30.344Z,2.43
2022-12-13T21:17:01.437Z,2.20
2022-12-13T21:19:35.821Z,2.37
2022-12-13T21:22:05.878Z,2.50
2022-12-13T21:24:32.350Z,2.50
2022-12-13T21:26:59.597Z,2.17
2022-12-13T21:29:26.392Z,2.40
2022-12-13T21:31:54.083Z,2.40
2022-12-13T21:34:21.969Z,2.20
2022-12-13T21:36:49.496Z,2.40
2022-12-13T21:39:17.546Z,2.30
2022-12-13T21:41:44.386Z,2.40
2022-12-13T21:44:12.831Z,2.40
2022-12-13T21:49:36.337Z,2.50
2022-12-13T21:52:03.571Z,2.60
2022-12-13T21:54:30.972Z,2.60
2022-12-13T21:57:16.981Z,2.70
2022-12-13T21:59:43.871Z,2.70
2022-12-13T22:02:19.806Z,2.50
2022-12-13T22:04:56.930Z,2.60
2022-12-13T22:07:33.201Z,2.57
2022-12-13T22:10:01.063Z,2.47
2022-12-13T22:12:35.260Z,2.50
2022-12-13T22:15:02.307Z,2.40
2022-12-13T22:17:35.045Z,2.57
2022-12-13T22:20:13.023Z,2.43
2022-12-13T22:22:40.163Z,2.23
2022-12-13T22:25:07.512Z,2.50
2022-12-13T22:27:34.325Z,2.40
2022-12-13T22:30:02.080Z,2.50
2022-12-13T22:32:29.512Z,2.50
2022-12-13T22:34:57.214Z,2.30
2022-12-13T22:37:24.333Z,2.40
2022-12-13T22:39:50.591Z,2.50
2022-12-13T22:42:17.096Z,2.30
2022-12-13T22:44:44.272Z,2.50
2022-12-13T22:47:10.904Z,2.40
2022-12-13T22:49:37.428Z,2.47
2022-12-13T22:52:04.697Z,2.50
2022-12-13T22:54:31.615Z,2.60
2022-12-13T22:56:59.402Z,2.60
2022-12-13T22:59:25.977Z,2.40
2022-12-13T23:01:59.799Z,2.50
2022-12-13T23:04:28.571Z,2.40
2022-12-13T23:06:54.830Z,2.50
2022-12-13T23:09:21.692Z,2.47
2022-12-13T23:12:07.595Z,2.40
2022-12-13T23:14:34.833Z,2.50
2022-12-13T23:17:01.727Z,2.30
2022-12-13T23:19:51.015Z,2.50
2022-12-13T23:22:23.787Z,2.47
2022-12-13T23:24:51.150Z,2.37
2022-12-13T23:27:18.452Z,2.33
2022-12-13T23:29:44.641Z,2.40
2022-12-13T23:32:11.714Z,2.40
2022-12-13T23:34:38.213Z,2.40
2022-12-13T23:37:04.367Z,2.43
2022-12-13T23:39:31.022Z,2.13
2022-12-13T23:41:57.234Z,2.30
2022-12-13T23:44:25.079Z,2.33
2022-12-13T23:46:52.390Z,2.37
2022-12-13T23:49:19.574Z,2.33
2022-12-13T23:51:45.932Z,2.30
2022-12-13T23:54:15.843Z,2.50
2022-12-13T23:56:42.071Z,2.40
2022-12-13T23:59:08.912Z,2.57
